createdAt,value
2022-09-28T00:00:30.343Z,96663.55
2022-09-28T00:02:57.114Z,96666.44
2022-09-28T00:05:26.807Z,96665.42
2022-09-28T00:07:54.495Z,96658.06
2022-09-28T00:10:21.167Z,96657.87
2022-09-28T00:12:47.661Z,96659.76
2022-09-28T00:15:14.272Z,96661.84
2022-09-28T00:17:40.949Z,96662.99
2022-09-28T00:20:08.036Z,96661.51
2022-09-28T00:22:35.089Z,96667.68
2022-09-28T00:25:01.600Z,96662.96
2022-09-28T00:27:28.086Z,96668.16
2022-09-28T00:29:54.676Z,96666.89
2022-09-28T00:32:21.427Z,96667.55
2022-09-28T00:34:48.098Z,96666.36
2022-09-28T00:37:15.524Z,96663.27
2022-09-28T00:39:42.488Z,96667.79
2022-09-28T00:42:16.073Z,96671.40
2022-09-28T00:44:53.692Z,96671.94
2022-09-28T00:47:46.494Z,96671.52
2022-09-28T00:50:17.086Z,96663.49
2022-09-28T00:53:04.005Z,96662.38
2022-09-28T00:55:37.718Z,96661.16
2022-09-28T00:58:08.134Z,96658.83
2022-09-28T01:00:35.273Z,96654.45
2022-09-28T01:03:03.818Z,96649.72
2022-09-28T01:05:30.804Z,96647.70
2022-09-28T01:07:57.693Z,96641.34
2022-09-28T01:10:25.119Z,96639.33
2022-09-28T01:12:51.608Z,96636.85
2022-09-28T01:15:20.187Z,96645.27
2022-09-28T01:17:46.625Z,96647.43
2022-09-28T01:20:33.801Z,96655.60
2022-09-28T01:23:31.216Z,96645.48
2022-09-28T01:26:33.314Z,96637.44
2022-09-28T01:29:06.593Z,96635.52
2022-09-28T01:31:36.443Z,96631.06
2022-09-28T01:34:13.342Z,96633.41
2022-09-28T01:36:48.203Z,96635.62
2022-09-28T01:39:20.028Z,96636.64
2022-09-28T01:41:50.824Z,96640.25
2022-09-28T01:44:21.217Z,96635.64
2022-09-28T01:46:50.304Z,96636.39
2022-09-28T01:49:41.698Z,96637.70
2022-09-28T01:52:38.427Z,96645.20
2022-09-28T01:55:20.938Z,96643.00
2022-09-28T01:57:56.924Z,96635.07
2022-09-28T02:00:25.309Z,96639.44
2022-09-28T02:03:11.456Z,96644.73
2022-09-28T02:05:40.610Z,96647.34
2022-09-28T02:08:26.856Z,96646.00
2022-09-28T02:11:03.906Z,96649.23
2022-09-28T02:13:37.706Z,96649.80
2022-09-28T02:16:13.633Z,96654.20
2022-09-28T02:18:40.192Z,96653.69
2022-09-28T02:21:13.119Z,96653.10
2022-09-28T02:23:44.016Z,96658.38
2022-09-28T02:26:14.071Z,96658.63
2022-09-28T02:28:40.939Z,96663.95
2022-09-28T02:31:07.830Z,96666.85
2022-09-28T02:33:38.376Z,96672.86
2022-09-28T02:36:05.845Z,96677.19
2022-09-28T02:38:33.098Z,96683.30
2022-09-28T02:41:31.005Z,96686.99
2022-09-28T02:44:10.256Z,96690.83
2022-09-28T02:47:08.494Z,96696.51
2022-09-28T02:50:10.889Z,96695.52
2022-09-28T02:52:53.962Z,96695.86
2022-09-28T02:55:35.604Z,96702.86
2022-09-28T02:58:21.262Z,96707.71
2022-09-28T03:01:16.067Z,96700.75
2022-09-28T03:03:54.365Z,96705.23
2022-09-28T03:06:37.745Z,96704.34
2022-09-28T03:09:13.155Z,96704.04
2022-09-28T03:12:03.855Z,96701.48
2022-09-28T03:14:30.505Z,96696.42
2022-09-28T03:16:56.984Z,96701.75
2022-09-28T03:19:33.515Z,96706.56
2022-09-28T03:22:00.603Z,96700.16
2022-09-28T03:24:27.403Z,96698.95
2022-09-28T03:26:54.300Z,96698.18
2022-09-28T03:29:20.811Z,96702.42
2022-09-28T03:31:47.569Z,96696.80
2022-09-28T03:34:14.410Z,96697.45
2022-09-28T03:36:40.878Z,96697.29
2022-09-28T03:39:07.301Z,96698.98
2022-09-28T03:41:33.823Z,96702.55
2022-09-28T03:44:00.360Z,96708.89
2022-09-28T03:46:27.217Z,96708.08
2022-09-28T03:48:57.118Z,96704.88
2022-09-28T03:51:23.835Z,96699.61
2022-09-28T03:53:50.422Z,96698.41
2022-09-28T03:56:17.060Z,96701.04
2022-09-28T03:58:43.598Z,96700.65
2022-09-28T04:01:16.751Z,96702.86
2022-09-28T04:03:44.285Z,96694.41
2022-09-28T04:06:11.124Z,96699.38
2022-09-28T04:08:37.761Z,96702.64
2022-09-28T04:11:04.365Z,96699.21
2022-09-28T04:13:31.565Z,96703.63
2022-09-28T04:16:00.560Z,96701.84
2022-09-28T04:18:27.917Z,96703.98
2022-09-28T04:21:05.600Z,96702.48
2022-09-28T04:23:33.854Z,96705.07
2022-09-28T04:26:00.356Z,96710.02
2022-09-28T04:28:27.301Z,96713.38
2022-09-28T04:30:54.042Z,96715.13
2022-09-28T04:33:20.580Z,96719.80
2022-09-28T04:35:47.087Z,96716.29
2022-09-28T04:38:13.648Z,96718.19
2022-09-28T04:40:40.290Z,96715.30
2022-09-28T04:43:06.982Z,96714.60
2022-09-28T04:45:33.656Z,96723.13
2022-09-28T04:48:00.442Z,96723.74
2022-09-28T04:50:26.984Z,96722.59
2022-09-28T04:52:53.639Z,96727.82
2022-09-28T04:55:20.174Z,96730.45
2022-09-28T04:57:46.673Z,96731.41
2022-09-28T05:00:14.262Z,96729.89
2022-09-28T05:02:40.865Z,96734.48
2022-09-28T05:05:08.110Z,96734.17
2022-09-28T05:07:34.735Z,96731.79
2022-09-28T05:10:01.619Z,96730.78
2022-09-28T05:12:28.227Z,96732.01
2022-09-28T05:14:54.777Z,96737.85
2022-09-28T05:17:21.516Z,96742.09
2022-09-28T05:19:48.360Z,96734.73
2022-09-28T05:22:14.947Z,96733.45
2022-09-28T05:24:41.749Z,96738.26
2022-09-28T05:27:08.285Z,96745.31
2022-09-28T05:29:35.044Z,96751.54
2022-09-28T05:32:01.847Z,96750.58
2022-09-28T05:34:29.048Z,96751.04
2022-09-28T05:36:55.724Z,96745.09
2022-09-28T05:39:22.360Z,96739.52
2022-09-28T05:41:48.935Z,96735.89
2022-09-28T05:44:15.540Z,96733.52
2022-09-28T05:46:42.259Z,96736.80
2022-09-28T05:49:08.806Z,96735.69
2022-09-28T05:51:35.306Z,96739.55
2022-09-28T05:54:13.414Z,96739.36
2022-09-28T05:56:40.257Z,96736.90
2022-09-28T05:59:06.955Z,96734.90
2022-09-28T06:01:33.541Z,96735.81
2022-09-28T06:04:00.405Z,96738.33
2022-09-28T06:06:26.991Z,96746.30
2022-09-28T06:08:53.527Z,96744.45
2022-09-28T06:11:20.087Z,96742.77
2022-09-28T06:13:46.543Z,96744.14
2022-09-28T06:16:16.133Z,96743.60
2022-09-28T06:18:42.705Z,96743.47
2022-09-28T06:21:09.227Z,96742.58
2022-09-28T06:23:35.947Z,96738.25
2022-09-28T06:26:02.795Z,96742.57
2022-09-28T06:28:29.336Z,96741.52
2022-09-28T06:30:55.980Z,96743.34
2022-09-28T06:33:22.633Z,96744.35
2022-09-28T06:35:49.124Z,96739.35
2022-09-28T06:38:16.121Z,96741.33
2022-09-28T06:40:42.672Z,96748.82
2022-09-28T06:43:14.736Z,96755.85
2022-09-28T06:45:43.142Z,96751.50
2022-09-28T06:48:11.318Z,96749.06
2022-09-28T06:50:40.439Z,96749.12
2022-09-28T06:53:10.576Z,96751.98
2022-09-28T06:55:45.494Z,96747.27
2022-09-28T06:58:14.273Z,96745.76
2022-09-28T07:00:41.621Z,96749.33
2022-09-28T07:03:13.155Z,96756.60
2022-09-28T07:05:51.105Z,96756.05
2022-09-28T07:08:18.058Z,96756.08
2022-09-28T07:10:49.114Z,96753.60
2022-09-28T07:13:45.390Z,96756.59
2022-09-28T07:16:03.875Z,96749.81
2022-09-28T07:18:30.558Z,96742.80
2022-09-28T07:20:58.288Z,96739.23
2022-09-28T07:23:26.161Z,96742.96
2022-09-28T07:25:53.020Z,96743.80
2022-09-28T07:28:19.486Z,96747.00
2022-09-28T07:30:46.045Z,96757.11
2022-09-28T07:33:14.787Z,96761.55
2022-09-28T07:35:41.968Z,96761.45
2022-09-28T07:38:10.329Z,96763.38
2022-09-28T07:40:37.184Z,96757.36
2022-09-28T07:43:05.660Z,96754.00
2022-09-28T07:45:32.358Z,96752.39
2022-09-28T07:47:59.206Z,96758.25
2022-09-28T07:50:25.854Z,96757.77
2022-09-28T07:52:52.441Z,96759.66
2022-09-28T07:55:19.093Z,96757.56
2022-09-28T07:57:45.840Z,96754.34
2022-09-28T08:00:13.298Z,96754.30
2022-09-28T08:02:40.047Z,96752.29
2022-09-28T08:05:07.097Z,96749.73
2022-09-28T08:07:33.869Z,96750.84
2022-09-28T08:10:00.545Z,96753.31
2022-09-28T08:12:26.997Z,96754.42
2022-09-28T08:14:53.534Z,96763.50
2022-09-28T08:17:21.450Z,96759.45
2022-09-28T08:19:47.991Z,96759.45
2022-09-28T08:22:15.863Z,96759.73
2022-09-28T08:24:42.353Z,96753.21
2022-09-28T08:27:09.057Z,96752.63
2022-09-28T08:29:36.202Z,96744.55
2022-09-28T08:32:07.350Z,96743.33
2022-09-28T08:34:38.947Z,96749.27
2022-09-28T08:37:06.925Z,96750.21
2022-09-28T08:39:33.422Z,96739.40
2022-09-28T08:42:05.528Z,96740.19
2022-09-28T08:44:48.589Z,96740.15
2022-09-28T08:47:25.084Z,96740.48
2022-09-28T08:49:51.909Z,96736.31
2022-09-28T08:52:26.027Z,96736.13
2022-09-28T08:55:02.762Z,96738.23
2022-09-28T08:57:43.628Z,96733.45
2022-09-28T09:00:17.854Z,96725.36
2022-09-28T09:02:44.641Z,96727.40
2022-09-28T09:05:14.399Z,96725.46
2022-09-28T09:08:05.499Z,96729.24
2022-09-28T09:10:53.866Z,96725.24
2022-09-28T09:13:54.325Z,96723.11
2022-09-28T09:16:36.027Z,96719.95
2022-09-28T09:19:16.790Z,96720.58
2022-09-28T09:21:48.133Z,96727.29
2022-09-28T09:24:27.507Z,96737.02
2022-09-28T09:27:18.292Z,96739.02
2022-09-28T09:29:56.508Z,96740.98
2022-09-28T09:32:41.812Z,96740.08
2022-09-28T09:35:25.975Z,96738.80
2022-09-28T09:38:18.592Z,96735.86
2022-09-28T09:41:06.916Z,96729.50
2022-09-28T09:43:55.257Z,96725.85
2022-09-28T09:46:32.894Z,96722.63
2022-09-28T09:49:14.079Z,96736.81
2022-09-28T09:52:01.303Z,96739.42
2022-09-28T09:54:37.400Z,96728.77
2022-09-28T09:57:20.294Z,96739.67
2022-09-28T09:59:48.403Z,96743.27
2022-09-28T10:02:17.808Z,96740.73
2022-09-28T10:04:48.002Z,96740.27
2022-09-28T10:07:29.995Z,96744.28
2022-09-28T10:09:58.594Z,96748.64
2022-09-28T10:12:26.254Z,96750.74
2022-09-28T10:14:53.314Z,96748.20
2022-09-28T10:17:20.587Z,96739.89
2022-09-28T10:19:47.224Z,96746.27
2022-09-28T10:22:20.895Z,96753.39
2022-09-28T10:24:50.837Z,96754.35
2022-09-28T10:27:22.001Z,96748.80
2022-09-28T10:30:17.233Z,96737.94
2022-09-28T10:32:46.762Z,96736.14
2022-09-28T10:35:19.084Z,96738.55
2022-09-28T10:38:07.670Z,96737.42
2022-09-28T10:40:45.245Z,96737.18
2022-09-28T10:43:28.161Z,96728.95
2022-09-28T10:46:12.857Z,96721.08
2022-09-28T10:48:54.024Z,96719.84
2022-09-28T10:51:39.266Z,96713.98
2022-09-28T10:54:06.180Z,96702.35
2022-09-28T10:56:37.649Z,96697.34
2022-09-28T10:59:24.092Z,96703.59
2022-09-28T11:02:22.054Z,96709.80
2022-09-28T11:04:58.169Z,96703.42
2022-09-28T11:07:30.298Z,96698.39
2022-09-28T11:09:56.938Z,96698.16
2022-09-28T11:12:43.323Z,96693.05
2022-09-28T11:15:19.825Z,96687.55
2022-09-28T11:17:47.056Z,96686.25
2022-09-28T11:20:27.817Z,96680.03
2022-09-28T11:23:14.961Z,96676.03
2022-09-28T11:25:42.431Z,96675.15
2022-09-28T11:28:22.856Z,96666.84
2022-09-28T11:30:54.319Z,96666.61
2022-09-28T11:33:35.078Z,96660.68
2022-09-28T11:36:34.647Z,96659.25
2022-09-28T11:39:23.674Z,96661.04
2022-09-28T11:42:16.480Z,96660.93
2022-09-28T11:44:48.316Z,96658.91
2022-09-28T11:47:42.032Z,96649.80
2022-09-28T11:50:47.682Z,96646.63
2022-09-28T11:53:20.402Z,96644.58
2022-09-28T11:56:08.510Z,96637.52
2022-09-28T11:58:42.168Z,96634.15
2022-09-28T12:01:18.744Z,96629.52
2022-09-28T12:03:53.767Z,96628.31
2022-09-28T12:06:28.747Z,96623.52
2022-09-28T12:09:03.515Z,96624.83
2022-09-28T12:11:39.219Z,96619.00
2022-09-28T12:14:20.710Z,96621.77
2022-09-28T12:17:07.345Z,96623.84
2022-09-28T12:19:40.364Z,96621.39
2022-09-28T12:22:37.248Z,96622.82
2022-09-28T12:25:10.055Z,96617.63
2022-09-28T12:27:45.246Z,96616.91
2022-09-28T12:30:21.575Z,96622.55
2022-09-28T12:33:04.638Z,96617.51
2022-09-28T12:36:00.090Z,96612.85
2022-09-28T12:39:17.978Z,96608.81
2022-09-28T12:42:21.337Z,96604.89
2022-09-28T12:44:59.483Z,96602.31
2022-09-28T12:47:45.135Z,96599.00
2022-09-28T12:50:56.863Z,96593.81
2022-09-28T12:53:36.124Z,96593.28
2022-09-28T12:56:18.078Z,96595.54
2022-09-28T12:59:09.402Z,96594.36
2022-09-28T13:02:01.517Z,96584.83
2022-09-28T13:04:49.997Z,96577.17
2022-09-28T13:07:36.467Z,96571.51
2022-09-28T13:10:30.282Z,96569.33
2022-09-28T13:13:44.541Z,96567.60
2022-09-28T13:16:23.754Z,96560.54
2022-09-28T13:19:19.785Z,96561.48
2022-09-28T13:21:52.202Z,96556.11
2022-09-28T13:24:33.117Z,96551.70
2022-09-28T13:27:06.431Z,96549.53
2022-09-28T13:29:34.096Z,96542.80
2022-09-28T13:32:02.853Z,96539.27
2022-09-28T13:34:33.323Z,96539.20
2022-09-28T13:37:15.063Z,96539.38
2022-09-28T13:39:44.586Z,96538.73
2022-09-28T13:42:31.187Z,96540.54
2022-09-28T13:45:22.323Z,96545.36
2022-09-28T13:47:51.818Z,96534.29
2022-09-28T13:50:52.152Z,96535.83
2022-09-28T13:53:52.483Z,96527.64
2022-09-28T13:56:37.088Z,96533.77
2022-09-28T13:59:10.582Z,96527.67
2022-09-28T14:01:39.279Z,96521.70
2022-09-28T14:04:17.649Z,96526.36
2022-09-28T14:06:55.545Z,96525.66
2022-09-28T14:09:25.174Z,96523.12
2022-09-28T14:12:03.178Z,96516.30
2022-09-28T14:14:51.374Z,96520.70
2022-09-28T14:17:20.961Z,96524.98
2022-09-28T14:19:55.369Z,96532.33
2022-09-28T14:22:40.470Z,96535.33
2022-09-28T14:25:44.415Z,96542.81
2022-09-28T14:28:48.711Z,96550.02
2022-09-28T14:31:27.000Z,96553.02
2022-09-28T14:33:56.743Z,96559.77
2022-09-28T14:36:27.537Z,96561.70
2022-09-28T14:38:54.004Z,96558.55
2022-09-28T14:41:43.182Z,96562.06
2022-09-28T14:44:11.987Z,96571.67
2022-09-28T14:46:41.391Z,96570.11
2022-09-28T14:49:17.034Z,96574.36
2022-09-28T14:51:47.231Z,96567.61
2022-09-28T14:54:25.139Z,96572.27
2022-09-28T14:56:54.415Z,96575.89
2022-09-28T14:59:26.766Z,96574.67
2022-09-28T15:02:13.125Z,96575.06
2022-09-28T15:04:48.249Z,96573.20
2022-09-28T15:07:49.047Z,96580.14
2022-09-28T15:10:27.318Z,96591.38
2022-09-28T15:12:55.380Z,96596.83
2022-09-28T15:15:31.887Z,96598.31
2022-09-28T15:18:30.981Z,96594.27
2022-09-28T15:20:57.966Z,96600.64
2022-09-28T15:23:26.320Z,96597.98
2022-09-28T15:25:54.646Z,96598.00
2022-09-28T15:28:23.240Z,96599.70
2022-09-28T15:30:50.496Z,96596.84
2022-09-28T15:33:25.810Z,96597.34
2022-09-28T15:36:20.159Z,96600.91
2022-09-28T15:38:53.804Z,96597.10
2022-09-28T15:41:21.523Z,96600.82
2022-09-28T15:44:05.608Z,96603.61
2022-09-28T15:46:32.378Z,96605.44
2022-09-28T15:48:59.274Z,96607.53
2022-09-28T15:51:28.141Z,96600.38
2022-09-28T15:54:00.925Z,96603.71
2022-09-28T15:56:28.875Z,96609.36
2022-09-28T15:59:14.795Z,96605.09
2022-09-28T16:01:43.774Z,96609.81
2022-09-28T16:04:32.252Z,96610.80
2022-09-28T16:07:17.328Z,96612.48
2022-09-28T16:09:54.535Z,96606.58
2022-09-28T16:12:21.680Z,96597.88
2022-09-28T16:14:53.626Z,96613.09
2022-09-28T16:17:31.014Z,96618.09
2022-09-28T16:19:58.270Z,96613.19
2022-09-28T16:22:28.690Z,96621.15
2022-09-28T16:24:57.884Z,96626.76
2022-09-28T16:27:54.991Z,96626.23
2022-09-28T16:30:29.207Z,96629.11
2022-09-28T16:32:57.290Z,96624.45
2022-09-28T16:35:29.560Z,96624.00
2022-09-28T16:38:12.401Z,96635.13
2022-09-28T16:40:44.242Z,96641.91
2022-09-28T16:43:28.256Z,96643.14
2022-09-28T16:45:56.854Z,96642.98
2022-09-28T16:48:32.276Z,96641.67
2022-09-28T16:50:59.186Z,96645.46
2022-09-28T16:53:26.691Z,96652.87
2022-09-28T16:55:53.200Z,96659.76
2022-09-28T16:58:20.009Z,96659.21
2022-09-28T17:00:46.696Z,96662.73
2022-09-28T17:03:16.142Z,96656.05
2022-09-28T17:05:44.681Z,96650.58
2022-09-28T17:08:14.993Z,96653.73
2022-09-28T17:13:45.281Z,96652.80
2022-09-28T17:16:13.590Z,96654.04
2022-09-28T17:18:40.280Z,96647.12
2022-09-28T17:21:12.112Z,96643.73
2022-09-28T17:23:39.309Z,96648.80
2022-09-28T17:26:06.404Z,96642.09
2022-09-28T17:28:36.774Z,96640.67
2022-09-28T17:31:05.019Z,96640.23
2022-09-28T17:33:32.020Z,96641.89
2022-09-28T17:36:03.686Z,96638.91
2022-09-28T17:38:30.847Z,96651.09
2022-09-28T17:40:57.764Z,96652.96
2022-09-28T17:43:24.427Z,96652.58
2022-09-28T17:45:51.936Z,96657.19
2022-09-28T17:48:20.286Z,96661.42
2022-09-28T17:50:47.027Z,96660.27
2022-09-28T17:53:14.479Z,96662.65
2022-09-28T17:55:41.431Z,96672.57
2022-09-28T17:58:19.256Z,96666.99
2022-09-28T18:00:48.190Z,96661.34
2022-09-28T18:03:18.397Z,96653.77
2022-09-28T18:05:45.622Z,96653.41
2022-09-28T18:08:15.778Z,96657.10
2022-09-28T18:10:42.697Z,96650.00
2022-09-28T18:13:10.058Z,96667.83
2022-09-28T18:15:37.114Z,96672.84
2022-09-28T18:18:04.297Z,96668.52
2022-09-28T18:20:31.634Z,96671.83
2022-09-28T18:22:58.276Z,96664.95
2022-09-28T18:25:25.225Z,96663.50
2022-09-28T18:27:51.970Z,96667.54
2022-09-28T18:30:18.609Z,96667.58
2022-09-28T18:32:45.601Z,96666.43
2022-09-28T18:35:12.312Z,96669.83
2022-09-28T18:37:40.684Z,96670.42
2022-09-28T18:40:09.978Z,96662.34
2022-09-28T18:42:36.635Z,96667.21
2022-09-28T18:45:08.547Z,96674.55
2022-09-28T18:47:35.251Z,96676.35
2022-09-28T18:50:02.101Z,96677.30
2022-09-28T18:52:28.735Z,96672.02
2022-09-28T18:54:56.216Z,96671.63
2022-09-28T18:57:22.943Z,96665.59
2022-09-28T18:59:49.992Z,96666.73
2022-09-28T19:02:16.731Z,96667.84
2022-09-28T19:04:43.479Z,96671.16
2022-09-28T19:07:10.125Z,96671.43
2022-09-28T19:09:36.865Z,96680.93
2022-09-28T19:12:03.607Z,96682.90
2022-09-28T19:14:30.349Z,96679.35
2022-09-28T19:16:57.197Z,96675.34
2022-09-28T19:19:23.839Z,96681.31
2022-09-28T19:21:50.607Z,96678.41
2022-09-28T19:24:19.076Z,96671.98
2022-09-28T19:26:46.022Z,96670.40
2022-09-28T19:29:13.189Z,96656.45
2022-09-28T19:31:40.842Z,96661.27
2022-09-28T19:34:10.466Z,96660.52
2022-09-28T19:36:40.075Z,96659.54
2022-09-28T19:39:06.935Z,96671.94
2022-09-28T19:41:39.092Z,96670.87
2022-09-28T19:44:21.912Z,96675.02
2022-09-28T19:46:48.755Z,96678.48
2022-09-28T19:49:16.654Z,96692.80
2022-09-28T19:52:01.647Z,96694.75
2022-09-28T19:54:35.515Z,96696.63
2022-09-28T19:57:03.992Z,96705.02
2022-09-28T19:59:30.438Z,96707.41
2022-09-28T20:01:57.219Z,96716.16
2022-09-28T20:04:23.823Z,96721.30
2022-09-28T20:06:50.568Z,96727.64
2022-09-28T20:09:17.112Z,96727.44
2022-09-28T20:11:43.631Z,96728.80
2022-09-28T20:14:10.389Z,96730.06
2022-09-28T20:16:36.927Z,96726.37
2022-09-28T20:19:04.098Z,96723.98
2022-09-28T20:21:31.147Z,96728.98
2022-09-28T20:23:57.771Z,96724.56
2022-09-28T20:26:26.176Z,96718.30
2022-09-28T20:28:53.329Z,96715.69
2022-09-28T20:31:22.549Z,96722.09
2022-09-28T20:33:50.197Z,96723.41
2022-09-28T20:36:19.905Z,96730.41
2022-09-28T20:38:52.064Z,96737.41
2022-09-28T20:41:22.109Z,96742.16
2022-09-28T20:43:54.209Z,96736.67
2022-09-28T20:46:21.038Z,96735.07
2022-09-28T20:48:51.051Z,96733.84
2022-09-28T20:51:22.097Z,96736.43
2022-09-28T20:53:56.932Z,96741.79
2022-09-28T20:56:29.074Z,96745.23
2022-09-28T20:58:56.573Z,96743.67
2022-09-28T21:01:25.882Z,96744.20
2022-09-28T21:03:53.418Z,96745.14
2022-09-28T21:06:22.082Z,96745.52
2022-09-28T21:08:48.775Z,96742.41
2022-09-28T21:11:17.700Z,96740.09
2022-09-28T21:13:45.337Z,96746.56
2022-09-28T21:16:14.730Z,96746.61
2022-09-28T21:18:42.174Z,96751.02
2022-09-28T21:21:14.469Z,96752.82
2022-09-28T21:23:41.108Z,96750.40
2022-09-28T21:26:10.483Z,96750.51
2022-09-28T21:28:38.602Z,96747.19
2022-09-28T21:31:07.489Z,96749.27
2022-09-28T21:33:34.507Z,96744.08
2022-09-28T21:36:06.821Z,96747.86
2022-09-28T21:38:34.489Z,96746.89
2022-09-28T21:41:01.737Z,96736.50
2022-09-28T21:43:30.618Z,96731.95
2022-09-28T21:45:57.940Z,96732.69
2022-09-28T21:48:27.758Z,96742.79
2022-09-28T21:50:59.889Z,96744.48
2022-09-28T21:53:32.293Z,96745.35
2022-09-28T21:56:00.659Z,96738.91
2022-09-28T21:58:30.067Z,96732.23
2022-09-28T22:01:15.105Z,96731.94
2022-09-28T22:03:43.258Z,96729.77
2022-09-28T22:06:11.276Z,96736.91
2022-09-28T22:08:38.782Z,96740.68
2022-09-28T22:11:12.067Z,96743.48
2022-09-28T22:13:45.067Z,96744.46
2022-09-28T22:16:14.250Z,96748.35
2022-09-28T22:18:41.494Z,96751.79
2022-09-28T22:21:12.533Z,96754.34
2022-09-28T22:23:39.986Z,96758.76
2022-09-28T22:26:08.112Z,96755.88
2022-09-28T22:28:34.867Z,96754.92
2022-09-28T22:31:01.686Z,96755.91
2022-09-28T22:33:29.164Z,96756.41
2022-09-28T22:35:55.809Z,96759.11
2022-09-28T22:38:24.367Z,96756.55
2022-09-28T22:40:52.971Z,96755.20
2022-09-28T22:43:19.766Z,96758.81
2022-09-28T22:45:47.092Z,96759.30
2022-09-28T22:48:13.603Z,96764.10
2022-09-28T22:50:52.467Z,96763.13
2022-09-28T22:53:19.629Z,96758.91
2022-09-28T22:55:52.308Z,96754.44
2022-09-28T22:58:18.882Z,96752.17
2022-09-28T23:00:45.460Z,96750.28
2022-09-28T23:03:12.442Z,96751.27
2022-09-28T23:05:39.261Z,96745.46
2022-09-28T23:08:05.857Z,96741.40
2022-09-28T23:10:32.579Z,96740.06
2022-09-28T23:12:59.324Z,96735.07
2022-09-28T23:15:25.827Z,96733.17
2022-09-28T23:17:53.330Z,96735.27
2022-09-28T23:20:20.945Z,96748.02
2022-09-28T23:22:49.288Z,96749.89
2022-09-28T23:25:17.882Z,96748.67
2022-09-28T23:27:50.081Z,96745.66
2022-09-28T23:30:18.482Z,96741.77
2022-09-28T23:32:45.494Z,96743.44
2022-09-28T23:35:13.287Z,96746.27
2022-09-28T23:37:40.387Z,96750.88
2022-09-28T23:40:07.541Z,96754.66
2022-09-28T23:42:34.979Z,96758.46
2022-09-28T23:45:02.168Z,96766.58
2022-09-28T23:47:29.355Z,96769.13
2022-09-28T23:49:55.958Z,96765.33
2022-09-28T23:52:23.103Z,96763.89
2022-09-28T23:54:49.661Z,96760.70
2022-09-28T23:57:16.141Z,96763.52
2022-09-28T23:59:42.639Z,96766.04
